createdAt,value
2023-04-18T00:00:12.597Z,7.35
2023-04-18T00:01:17.372Z,7.36
2023-04-18T00:02:20.802Z,7.34
2023-04-18T00:03:25.194Z,7.31
2023-04-18T00:04:28.089Z,7.33
2023-04-18T00:05:31.970Z,7.31
2023-04-18T00:06:36.199Z,7.31
2023-04-18T00:07:40.276Z,7.30
2023-04-18T00:08:43.082Z,7.30
2023-04-18T00:09:46.811Z,7.30
2023-04-18T00:10:49.650Z,7.29
2023-04-18T00:11:53.650Z,7.29
2023-04-18T00:12:56.356Z,7.28
2023-04-18T00:14:00.300Z,7.28
2023-04-18T00:15:03.374Z,7.28
2023-04-18T00:16:09.614Z,7.25
2023-04-18T00:17:14.791Z,7.24
2023-04-18T00:18:18.465Z,7.23
2023-04-18T00:19:20.804Z,7.24
2023-04-18T00:20:26.781Z,7.21
2023-04-18T00:21:30.325Z,7.17
2023-04-18T00:22:34.400Z,7.20
2023-04-18T00:23:37.414Z,7.14
2023-04-18T00:24:42.240Z,7.21
2023-04-18T00:25:44.942Z,7.20
2023-04-18T00:26:49.137Z,7.19
2023-04-18T00:27:52.003Z,7.19
2023-04-18T00:28:55.721Z,7.15
2023-04-18T00:29:58.386Z,7.19
2023-04-18T00:31:02.182Z,7.17
2023-04-18T00:32:04.902Z,7.19
2023-04-18T00:33:11.610Z,7.18
2023-04-18T00:34:14.603Z,7.16
2023-04-18T00:35:20.330Z,7.13
2023-04-18T00:36:23.073Z,7.15
2023-04-18T00:37:26.696Z,7.13
2023-04-18T00:38:29.023Z,7.11
2023-04-18T00:39:32.853Z,7.10
2023-04-18T00:40:35.673Z,7.09
2023-04-18T00:41:39.460Z,7.06
2023-04-18T00:42:42.073Z,7.09
2023-04-18T00:43:45.867Z,7.09
2023-04-18T00:44:48.614Z,7.07
2023-04-18T00:45:52.575Z,7.05
2023-04-18T00:46:55.207Z,7.06
2023-04-18T00:47:59.315Z,7.06
2023-04-18T00:49:04.737Z,7.04
2023-04-18T00:50:09.881Z,7.05
2023-04-18T00:51:13.090Z,7.03
2023-04-18T00:52:18.647Z,7.00
2023-04-18T00:53:21.885Z,7.00
2023-04-18T00:54:28.064Z,6.94
2023-04-18T00:55:30.961Z,6.98
2023-04-18T00:56:35.338Z,6.95
2023-04-18T00:57:38.019Z,6.93
2023-04-18T00:58:41.829Z,6.89
2023-04-18T00:59:44.745Z,6.92
2023-04-18T01:00:48.497Z,6.90
2023-04-18T01:01:51.153Z,6.90
2023-04-18T01:02:56.006Z,6.89
2023-04-18T01:03:58.909Z,6.89
2023-04-18T01:05:04.502Z,6.87
2023-04-18T01:06:07.546Z,6.89
2023-04-18T01:07:11.549Z,6.73
2023-04-18T01:08:14.696Z,6.87
2023-04-18T01:09:18.507Z,6.88
2023-04-18T01:10:21.330Z,6.89
2023-04-18T01:11:24.889Z,6.87
2023-04-18T01:12:27.239Z,6.89
2023-04-18T01:13:30.933Z,6.86
2023-04-18T01:14:33.624Z,6.87
2023-04-18T01:15:37.291Z,6.88
2023-04-18T01:16:40.211Z,6.86
2023-04-18T01:17:43.959Z,6.85
2023-04-18T01:18:46.651Z,6.80
2023-04-18T01:19:51.280Z,6.83
2023-04-18T01:20:57.463Z,6.76
2023-04-18T01:22:01.195Z,6.75
2023-04-18T01:23:04.375Z,6.76
2023-04-18T01:24:13.691Z,6.73
2023-04-18T01:25:16.495Z,6.74
2023-04-18T01:26:21.356Z,6.74
2023-04-18T01:27:24.171Z,6.73
2023-04-18T01:28:27.969Z,6.74
2023-04-18T01:29:30.650Z,6.74
2023-04-18T01:30:34.722Z,6.70
2023-04-18T01:31:38.707Z,6.72
2023-04-18T01:32:42.661Z,6.72
2023-04-18T01:33:45.420Z,6.72
2023-04-18T01:34:49.074Z,6.70
2023-04-18T01:35:52.123Z,6.71
2023-04-18T01:36:55.794Z,6.71
2023-04-18T01:37:59.062Z,6.70
2023-04-18T01:39:02.965Z,6.67
2023-04-18T01:40:08.797Z,6.71
2023-04-18T01:41:12.518Z,6.71
2023-04-18T01:42:15.207Z,6.68
2023-04-18T01:43:18.756Z,6.68
2023-04-18T01:44:21.543Z,6.69
2023-04-18T01:45:25.207Z,6.68
2023-04-18T01:46:28.099Z,6.68
2023-04-18T01:47:31.868Z,6.68
2023-04-18T01:48:34.512Z,6.70
2023-04-18T01:49:38.071Z,6.71
2023-04-18T01:50:40.881Z,6.71
2023-04-18T01:51:44.500Z,6.72
2023-04-18T01:52:47.561Z,6.73
2023-04-18T01:53:51.551Z,6.73
2023-04-18T01:54:54.197Z,6.77
2023-04-18T01:55:59.659Z,6.79
2023-04-18T01:57:02.248Z,6.79
2023-04-18T01:58:05.937Z,6.81
2023-04-18T01:59:08.615Z,6.80
2023-04-18T02:00:13.563Z,6.84
2023-04-18T02:01:16.263Z,6.85
2023-04-18T02:02:20.138Z,6.86
2023-04-18T02:03:23.279Z,6.89
2023-04-18T02:04:26.960Z,6.92
2023-04-18T02:05:29.275Z,6.95
2023-04-18T02:06:32.890Z,6.97
2023-04-18T02:07:35.279Z,7.00
2023-04-18T02:08:39.070Z,7.01
2023-04-18T02:09:41.741Z,6.93
2023-04-18T02:10:45.446Z,7.02
2023-04-18T02:11:49.652Z,7.06
2023-04-18T02:12:53.313Z,7.08
2023-04-18T02:13:56.383Z,7.05
2023-04-18T02:15:00.151Z,7.08
2023-04-18T02:16:03.003Z,7.09
2023-04-18T02:17:06.661Z,7.10
2023-04-18T02:18:10.218Z,7.09
2023-04-18T02:19:13.933Z,7.06
2023-04-18T02:20:16.697Z,7.08
2023-04-18T02:21:22.068Z,7.04
2023-04-18T02:22:24.838Z,7.05
2023-04-18T02:23:28.935Z,7.02
2023-04-18T02:24:31.605Z,7.01
2023-04-18T02:25:35.215Z,6.98
2023-04-18T02:26:37.515Z,6.97
2023-04-18T02:27:42.597Z,6.94
2023-04-18T02:28:45.340Z,6.94
2023-04-18T02:29:49.018Z,6.92
2023-04-18T02:30:51.851Z,6.90
2023-04-18T02:31:55.610Z,6.89
2023-04-18T02:32:58.296Z,6.88
2023-04-18T02:34:01.969Z,6.86
2023-04-18T02:35:04.646Z,6.86
2023-04-18T02:36:08.896Z,6.83
2023-04-18T02:37:11.690Z,6.81
2023-04-18T02:38:15.270Z,6.79
2023-04-18T02:39:18.155Z,6.78
2023-04-18T02:40:22.203Z,6.77
2023-04-18T02:41:24.955Z,6.80
2023-04-18T02:42:28.704Z,6.81
2023-04-18T02:43:33.469Z,6.84
2023-04-18T02:44:37.084Z,6.87
2023-04-18T02:45:39.725Z,6.91
2023-04-18T02:46:43.376Z,6.95
2023-04-18T02:47:54.735Z,6.98
2023-04-18T02:48:59.417Z,6.98
2023-04-18T02:50:02.138Z,7.01
2023-04-18T02:51:06.632Z,7.01
2023-04-18T02:52:09.320Z,7.04
2023-04-18T02:53:13.076Z,7.05
2023-04-18T02:54:15.951Z,7.05
2023-04-18T02:55:20.236Z,7.10
2023-04-18T02:56:25.038Z,7.12
2023-04-18T02:57:27.583Z,7.15
2023-04-18T02:58:31.298Z,7.18
2023-04-18T02:59:35.241Z,7.21
2023-04-18T03:00:39.108Z,7.25
2023-04-18T03:01:41.409Z,7.31
2023-04-18T03:02:45.310Z,7.33
2023-04-18T03:03:47.930Z,7.38
2023-04-18T03:04:51.554Z,7.43
2023-04-18T03:05:55.268Z,7.47
2023-04-18T03:06:59.429Z,7.48
2023-04-18T03:08:03.329Z,7.48
2023-04-18T03:09:05.927Z,7.52
2023-04-18T03:10:10.220Z,7.53
2023-04-18T03:11:12.704Z,7.53
2023-04-18T03:12:16.626Z,7.55
2023-04-18T03:13:19.135Z,7.53
2023-04-18T03:14:22.923Z,7.56
2023-04-18T03:15:26.794Z,7.58
2023-04-18T03:16:31.256Z,7.58
2023-04-18T03:17:34.358Z,7.61
2023-04-18T03:18:38.020Z,7.63
2023-04-18T03:19:40.757Z,7.64
2023-04-18T03:20:44.414Z,7.65
2023-04-18T03:21:47.008Z,7.66
2023-04-18T03:22:50.656Z,7.66
2023-04-18T03:23:53.711Z,7.65
2023-04-18T03:24:57.451Z,7.62
2023-04-18T03:26:00.170Z,7.66
2023-04-18T03:27:03.778Z,7.68
2023-04-18T03:28:06.812Z,7.70
2023-04-18T03:29:10.602Z,7.72
2023-04-18T03:30:13.609Z,7.73
2023-04-18T03:31:18.741Z,7.79
2023-04-18T03:32:22.577Z,7.82
2023-04-18T03:33:26.372Z,7.83
2023-04-18T03:34:29.773Z,7.78
2023-04-18T03:35:33.487Z,7.84
2023-04-18T03:36:37.301Z,7.84
2023-04-18T03:37:39.539Z,7.81
2023-04-18T03:38:43.536Z,7.77
2023-04-18T03:39:46.297Z,7.79
2023-04-18T03:40:50.158Z,7.75
2023-04-18T03:41:52.833Z,7.71
2023-04-18T03:42:56.417Z,7.73
2023-04-18T03:43:58.805Z,7.74
2023-04-18T03:45:02.391Z,7.72
2023-04-18T03:46:07.673Z,7.72
2023-04-18T03:47:14.766Z,7.74
2023-04-18T03:48:17.447Z,7.72
2023-04-18T03:49:21.342Z,7.72
2023-04-18T03:50:25.879Z,7.74
2023-04-18T03:51:31.573Z,7.77
2023-04-18T03:52:34.183Z,7.82
2023-04-18T03:53:37.936Z,7.85
2023-04-18T03:54:40.769Z,7.89
2023-04-18T03:55:45.105Z,7.91
2023-04-18T03:56:47.867Z,7.96
2023-04-18T03:57:51.759Z,8.02
2023-04-18T03:58:54.477Z,8.08
2023-04-18T03:59:58.229Z,8.11
2023-04-18T04:01:01.459Z,8.18
2023-04-18T04:02:05.361Z,8.22
2023-04-18T04:03:09.760Z,8.25
2023-04-18T04:04:15.817Z,8.33
2023-04-18T04:05:18.844Z,8.34
2023-04-18T04:06:22.489Z,8.33
2023-04-18T04:07:24.826Z,8.36
2023-04-18T04:08:28.445Z,8.41
2023-04-18T04:09:30.799Z,8.44
2023-04-18T04:10:34.688Z,8.46
2023-04-18T04:11:37.454Z,8.47
2023-04-18T04:12:41.170Z,8.50
2023-04-18T04:13:43.849Z,8.55
2023-04-18T04:14:47.536Z,8.59
2023-04-18T04:15:51.392Z,8.63
2023-04-18T04:16:55.063Z,8.65
2023-04-18T04:17:57.793Z,8.75
2023-04-18T04:19:03.034Z,8.81
2023-04-18T04:20:06.795Z,8.86
2023-04-18T04:21:10.177Z,8.91
2023-04-18T04:22:12.780Z,8.94
2023-04-18T04:23:16.593Z,9.00
2023-04-18T04:24:20.714Z,9.09
2023-04-18T04:25:25.110Z,9.14
2023-04-18T04:26:27.920Z,9.20
2023-04-18T04:27:31.668Z,9.31
2023-04-18T04:28:33.973Z,9.34
2023-04-18T04:29:38.909Z,9.42
2023-04-18T04:30:41.911Z,9.35
2023-04-18T04:31:46.336Z,9.52
2023-04-18T04:32:49.708Z,9.57
2023-04-18T04:33:53.404Z,9.62
2023-04-18T04:34:57.616Z,9.59
2023-04-18T04:36:01.689Z,9.67
2023-04-18T04:37:04.482Z,9.74
2023-04-18T04:38:08.654Z,9.70
2023-04-18T04:39:11.898Z,9.72
2023-04-18T04:40:16.360Z,9.71
2023-04-18T04:41:19.171Z,9.68
2023-04-18T04:42:25.528Z,9.68
2023-04-18T04:43:28.934Z,9.66
2023-04-18T04:44:33.132Z,9.63
2023-04-18T04:45:36.507Z,9.60
2023-04-18T04:46:42.372Z,9.65
2023-04-18T04:47:45.249Z,9.63
2023-04-18T04:48:49.855Z,9.61
2023-04-18T04:49:52.654Z,9.64
2023-04-18T04:50:59.483Z,9.66
2023-04-18T04:52:03.746Z,9.69
2023-04-18T04:53:07.842Z,9.76
2023-04-18T04:54:10.592Z,9.78
2023-04-18T04:55:14.304Z,9.84
2023-04-18T04:56:17.230Z,9.93
2023-04-18T04:57:20.966Z,10.01
2023-04-18T04:58:24.077Z,10.10
2023-04-18T04:59:27.679Z,10.19
2023-04-18T05:00:30.592Z,10.28
2023-04-18T05:01:34.228Z,10.40
2023-04-18T05:02:37.138Z,10.45
2023-04-18T05:03:41.364Z,10.47
2023-04-18T05:04:44.079Z,10.53
2023-04-18T05:05:47.754Z,10.57
2023-04-18T05:06:53.227Z,10.53
2023-04-18T05:07:55.851Z,10.58
2023-04-18T05:09:01.263Z,10.55
2023-04-18T05:10:04.503Z,10.59
2023-04-18T05:11:08.434Z,10.53
2023-04-18T05:12:10.695Z,10.57
2023-04-18T05:13:14.375Z,10.58
2023-04-18T05:14:18.049Z,10.62
2023-04-18T05:15:21.714Z,10.71
2023-04-18T05:16:24.314Z,10.79
2023-04-18T05:17:28.079Z,10.91
2023-04-18T05:18:30.418Z,11.00
2023-04-18T05:19:34.608Z,11.05
2023-04-18T05:20:37.249Z,11.06
2023-04-18T05:21:41.123Z,11.18
2023-04-18T05:22:45.385Z,11.20
2023-04-18T05:23:52.691Z,11.21
2023-04-18T05:24:55.622Z,11.09
2023-04-18T05:25:59.241Z,11.27
2023-04-18T05:27:02.212Z,11.29
2023-04-18T05:28:06.005Z,11.33
2023-04-18T05:29:09.759Z,11.39
2023-04-18T05:30:12.733Z,11.45
2023-04-18T05:31:16.499Z,11.50
2023-04-18T05:32:18.824Z,11.56
2023-04-18T05:33:22.021Z,11.59
2023-04-18T05:34:24.651Z,11.66
2023-04-18T05:35:28.501Z,11.70
2023-04-18T05:36:32.064Z,11.75
2023-04-18T05:37:35.479Z,11.81
2023-04-18T05:38:39.473Z,11.88
2023-04-18T05:39:43.657Z,11.81
2023-04-18T05:40:46.278Z,11.97
2023-04-18T05:41:50.084Z,11.82
2023-04-18T05:42:52.207Z,12.02
2023-04-18T05:44:04.895Z,12.02
2023-04-18T05:45:10.398Z,12.03
2023-04-18T05:46:13.168Z,12.04
2023-04-18T05:47:17.837Z,12.09
2023-04-18T05:48:25.936Z,12.12
2023-04-18T05:49:31.324Z,11.99
2023-04-18T05:50:36.042Z,12.05
2023-04-18T05:51:40.118Z,12.06
2023-04-18T05:52:45.257Z,12.04
2023-04-18T05:53:55.455Z,12.01
2023-04-18T05:54:59.221Z,12.09
2023-04-18T05:56:01.928Z,12.06
2023-04-18T05:57:05.751Z,12.02
2023-04-18T05:58:08.333Z,12.02
2023-04-18T05:59:12.253Z,12.01
2023-04-18T06:00:17.412Z,11.96
2023-04-18T06:01:21.618Z,11.89
2023-04-18T06:02:25.090Z,11.97
2023-04-18T06:03:29.002Z,11.96
2023-04-18T06:04:32.013Z,11.91
2023-04-18T06:05:36.093Z,11.90
2023-04-18T06:06:40.277Z,11.86
2023-04-18T06:07:43.583Z,11.80
2023-04-18T06:08:47.270Z,11.82
2023-04-18T06:09:53.505Z,11.83
2023-04-18T06:10:57.172Z,11.85
2023-04-18T06:12:00.160Z,11.81
2023-04-18T06:13:04.289Z,11.87
2023-04-18T06:14:07.952Z,11.92
2023-04-18T06:15:12.883Z,11.94
2023-04-18T06:16:15.832Z,11.98
2023-04-18T06:17:19.580Z,12.04
2023-04-18T06:18:22.373Z,12.11
2023-04-18T06:19:25.993Z,12.16
2023-04-18T06:20:28.358Z,12.20
2023-04-18T06:21:31.799Z,12.25
2023-04-18T06:22:34.396Z,12.30
2023-04-18T06:23:38.775Z,12.38
2023-04-18T06:24:41.469Z,12.46
2023-04-18T06:25:46.901Z,12.52
2023-04-18T06:26:49.561Z,12.59
2023-04-18T06:27:53.467Z,12.69
2023-04-18T06:28:57.102Z,12.79
2023-04-18T06:30:00.872Z,12.88
2023-04-18T06:31:03.717Z,12.94
2023-04-18T06:32:07.984Z,13.03
2023-04-18T06:33:11.912Z,13.09
2023-04-18T06:34:16.259Z,13.15
2023-04-18T06:35:20.130Z,13.22
2023-04-18T06:36:22.839Z,13.32
2023-04-18T06:37:26.599Z,13.40
2023-04-18T06:38:30.399Z,13.43
2023-04-18T06:39:33.117Z,13.50
2023-04-18T06:40:36.906Z,13.58
2023-04-18T06:41:40.580Z,13.68
2023-04-18T06:42:44.580Z,13.76
2023-04-18T06:44:02.151Z,13.83
2023-04-18T06:45:08.219Z,13.92
2023-04-18T06:46:10.929Z,13.94
2023-04-18T06:47:14.728Z,13.97
2023-04-18T06:48:18.636Z,14.04
2023-04-18T06:49:26.097Z,14.12
2023-04-18T06:50:30.836Z,14.16
2023-04-18T06:51:34.504Z,14.23
2023-04-18T06:52:40.894Z,14.19
2023-04-18T06:53:46.052Z,14.23
2023-04-18T06:54:48.829Z,14.24
2023-04-18T06:55:52.607Z,14.28
2023-04-18T06:56:58.086Z,14.31
2023-04-18T06:58:00.961Z,14.25
2023-04-18T06:59:04.682Z,14.40
2023-04-18T07:00:09.049Z,14.48
2023-04-18T07:01:11.754Z,14.55
2023-04-18T07:02:15.763Z,14.63
2023-04-18T07:03:18.741Z,14.66
2023-04-18T07:04:22.684Z,14.71
2023-04-18T07:05:26.537Z,14.71
2023-04-18T07:06:29.356Z,14.77
2023-04-18T07:07:33.249Z,14.83
2023-04-18T07:08:36.207Z,14.85
2023-04-18T07:09:39.731Z,14.95
2023-04-18T07:10:43.151Z,15.00
2023-04-18T07:11:45.853Z,15.04
2023-04-18T07:12:51.160Z,15.07
2023-04-18T07:13:53.907Z,15.13
2023-04-18T07:14:57.630Z,15.11
2023-04-18T07:16:01.645Z,15.14
2023-04-18T07:17:06.365Z,15.13
2023-04-18T07:18:09.494Z,15.20
2023-04-18T07:19:13.157Z,15.21
2023-04-18T07:20:17.045Z,15.22
2023-04-18T07:21:20.903Z,15.22
2023-04-18T07:22:24.786Z,15.23
2023-04-18T07:23:27.306Z,15.24
2023-04-18T07:24:31.508Z,15.28
2023-04-18T07:25:35.335Z,15.36
2023-04-18T07:26:39.768Z,15.42
2023-04-18T07:27:42.364Z,15.37
2023-04-18T07:28:47.722Z,15.51
2023-04-18T07:29:51.416Z,15.58
2023-04-18T07:30:55.621Z,15.50
2023-04-18T07:31:59.425Z,15.54
2023-04-18T07:33:03.403Z,15.56
2023-04-18T07:34:07.219Z,15.55
2023-04-18T07:35:12.052Z,15.58
2023-04-18T07:36:14.647Z,15.62
2023-04-18T07:37:19.211Z,15.72
2023-04-18T07:38:21.892Z,15.75
2023-04-18T07:39:25.850Z,15.82
2023-04-18T07:40:29.492Z,15.94
2023-04-18T07:41:33.565Z,16.05
2023-04-18T07:42:36.116Z,16.02
2023-04-18T07:43:40.815Z,16.12
2023-04-18T07:44:44.929Z,16.10
2023-04-18T07:45:48.756Z,16.17
2023-04-18T07:46:52.393Z,16.26
2023-04-18T07:47:56.995Z,16.22
2023-04-18T07:49:02.504Z,16.21
2023-04-18T07:50:06.253Z,16.34
2023-04-18T07:51:09.919Z,16.35
2023-04-18T07:52:13.730Z,16.31
2023-04-18T07:53:16.342Z,16.38
2023-04-18T07:54:20.277Z,16.45
2023-04-18T07:55:24.033Z,16.37
2023-04-18T07:56:27.840Z,16.35
2023-04-18T07:57:30.379Z,16.31
2023-04-18T07:58:36.329Z,16.31
2023-04-18T07:59:40.748Z,16.23
2023-04-18T08:00:45.863Z,16.17
2023-04-18T08:01:51.010Z,16.10
2023-04-18T08:02:54.822Z,16.13
2023-04-18T08:04:02.063Z,16.15
2023-04-18T08:05:06.933Z,15.99
2023-04-18T08:06:10.053Z,16.05
2023-04-18T08:07:14.142Z,16.06
2023-04-18T08:08:18.562Z,16.06
2023-04-18T08:09:22.013Z,16.08
2023-04-18T08:10:25.873Z,16.14
2023-04-18T08:11:28.537Z,16.12
2023-04-18T08:12:32.228Z,16.08
2023-04-18T08:13:35.294Z,16.18
2023-04-18T08:14:38.935Z,16.16
2023-04-18T08:15:43.030Z,16.21
2023-04-18T08:16:48.326Z,16.26
2023-04-18T08:17:51.747Z,16.31
2023-04-18T08:18:55.442Z,16.39
2023-04-18T08:19:58.419Z,16.45
2023-04-18T08:21:02.302Z,16.52
2023-04-18T08:22:12.496Z,16.58
2023-04-18T08:23:16.325Z,16.57
2023-04-18T08:24:20.179Z,16.61
2023-04-18T08:25:23.936Z,16.67
2023-04-18T08:26:27.904Z,16.70
2023-04-18T08:27:31.611Z,16.74
2023-04-18T08:28:35.475Z,16.77
2023-04-18T08:29:39.220Z,16.76
2023-04-18T08:30:42.637Z,16.84
2023-04-18T08:31:48.080Z,16.87
2023-04-18T08:32:51.101Z,16.86
2023-04-18T08:33:54.717Z,16.72
2023-04-18T08:34:58.551Z,16.76
2023-04-18T08:36:01.194Z,16.76
2023-04-18T08:37:04.996Z,16.81
2023-04-18T08:38:09.030Z,16.78
2023-04-18T08:39:12.061Z,16.70
2023-04-18T08:40:15.982Z,16.69
2023-04-18T08:41:23.527Z,16.71
2023-04-18T08:42:27.888Z,16.72
2023-04-18T08:43:31.539Z,16.68
2023-04-18T08:44:35.464Z,16.63
2023-04-18T08:45:38.755Z,16.59
2023-04-18T08:46:42.672Z,16.61
2023-04-18T08:47:48.084Z,16.55
2023-04-18T08:48:53.225Z,16.49
2023-04-18T08:49:56.056Z,16.51
2023-04-18T08:51:02.425Z,16.49
2023-04-18T08:52:11.420Z,16.45
2023-04-18T08:53:18.101Z,16.42
2023-04-18T08:54:22.693Z,16.29
2023-04-18T08:55:26.565Z,16.23
2023-04-18T08:56:29.258Z,16.17
2023-04-18T08:57:33.701Z,16.00
2023-04-18T08:58:37.523Z,16.12
2023-04-18T08:59:43.210Z,16.14
2023-04-18T09:00:51.944Z,16.13
2023-04-18T09:01:57.244Z,15.97
2023-04-18T09:03:04.153Z,15.89
2023-04-18T09:04:08.240Z,15.86
2023-04-18T09:05:15.623Z,15.86
2023-04-18T09:06:19.444Z,15.84
2023-04-18T09:07:31.489Z,15.83
2023-04-18T09:08:35.624Z,15.76
2023-04-18T09:09:48.500Z,15.76
2023-04-18T09:10:52.916Z,15.90
2023-04-18T09:12:08.699Z,16.02
2023-04-18T09:13:12.700Z,16.04
2023-04-18T09:14:24.882Z,15.96
2023-04-18T09:15:31.477Z,15.84
2023-04-18T09:16:48.321Z,15.74
2023-04-18T09:17:54.121Z,15.72
2023-04-18T09:19:14.000Z,15.70
2023-04-18T09:20:35.183Z,15.64
2023-04-18T09:21:40.555Z,15.64
2023-04-18T09:22:50.748Z,15.66
2023-04-18T09:24:17.788Z,15.63
2023-04-18T09:25:29.618Z,15.79
2023-04-18T09:26:36.649Z,15.74
2023-04-18T09:27:40.534Z,15.73
2023-04-18T09:28:54.729Z,15.79
2023-04-18T09:29:58.848Z,15.78
2023-04-18T09:31:12.289Z,15.88
2023-04-18T09:32:25.588Z,16.03
2023-04-18T09:33:32.734Z,16.06
2023-04-18T09:34:42.833Z,16.18
2023-04-18T09:35:47.426Z,16.24
2023-04-18T09:37:08.059Z,16.14
2023-04-18T09:38:11.820Z,16.15
2023-04-18T09:39:29.903Z,16.11
2023-04-18T09:40:34.422Z,16.10
2023-04-18T09:41:37.197Z,16.07
2023-04-18T09:42:41.280Z,16.08
2023-04-18T09:43:47.511Z,16.06
2023-04-18T09:45:03.906Z,16.15
2023-04-18T09:46:11.449Z,16.08
2023-04-18T09:47:16.758Z,16.07
2023-04-18T09:48:20.432Z,16.00
2023-04-18T09:49:23.049Z,15.96
2023-04-18T09:50:31.528Z,15.98
2023-04-18T09:51:35.280Z,16.04
2023-04-18T09:52:39.290Z,16.13
2023-04-18T09:54:04.953Z,16.04
2023-04-18T09:55:11.545Z,16.09
2023-04-18T09:56:21.508Z,16.00
2023-04-18T09:57:27.959Z,16.21
2023-04-18T09:58:34.353Z,16.19
2023-04-18T09:59:44.947Z,16.12
2023-04-18T10:00:49.273Z,16.03
2023-04-18T10:01:53.888Z,16.07
2023-04-18T10:03:00.246Z,15.98
2023-04-18T10:04:12.373Z,16.05
2023-04-18T10:05:21.225Z,16.00
2023-04-18T10:06:30.487Z,16.05
2023-04-18T10:07:37.815Z,16.29
2023-04-18T10:08:42.239Z,16.39
2023-04-18T10:09:47.384Z,16.54
2023-04-18T10:10:51.601Z,16.68
2023-04-18T10:11:56.192Z,16.86
2023-04-18T10:13:04.087Z,16.67
2023-04-18T10:14:10.366Z,16.84
2023-04-18T10:15:15.947Z,16.87
2023-04-18T10:16:21.162Z,16.77
2023-04-18T10:17:24.586Z,16.80
2023-04-18T10:18:28.422Z,16.71
2023-04-18T10:19:31.122Z,16.62
2023-04-18T10:20:36.303Z,16.62
2023-04-18T10:21:51.878Z,16.60
2023-04-18T10:22:57.188Z,16.61
2023-04-18T10:24:02.438Z,16.57
2023-04-18T10:25:07.143Z,16.57
2023-04-18T10:26:11.643Z,16.62
2023-04-18T10:27:14.274Z,16.50
2023-04-18T10:28:19.314Z,16.58
2023-04-18T10:29:50.568Z,16.67
2023-04-18T10:31:03.966Z,16.68
2023-04-18T10:32:07.011Z,16.71
2023-04-18T10:33:30.502Z,16.76
2023-04-18T10:34:38.863Z,16.86
2023-04-18T10:35:57.076Z,16.85
2023-04-18T10:37:08.892Z,16.87
2023-04-18T10:38:18.670Z,16.98
2023-04-18T10:39:25.712Z,16.98
2023-04-18T10:40:34.235Z,16.97
2023-04-18T10:41:51.104Z,16.93
2023-04-18T10:43:00.127Z,16.82
2023-04-18T10:44:18.639Z,16.90
2023-04-18T10:45:24.092Z,17.02
2023-04-18T10:46:32.338Z,16.99
2023-04-18T10:47:37.291Z,16.76
2023-04-18T10:48:40.254Z,16.93
2023-04-18T10:49:56.308Z,17.03
2023-04-18T10:51:18.889Z,17.15
2023-04-18T10:52:23.053Z,17.24
2023-04-18T10:53:27.096Z,17.35
2023-04-18T10:54:36.228Z,17.38
2023-04-18T10:55:46.040Z,17.35
2023-04-18T10:56:58.365Z,17.31
2023-04-18T10:58:02.764Z,17.25
2023-04-18T10:59:07.981Z,17.18
2023-04-18T11:00:14.279Z,16.91
2023-04-18T11:01:31.728Z,16.93
2023-04-18T11:02:35.659Z,17.06
2023-04-18T11:03:41.961Z,17.05
2023-04-18T11:04:50.279Z,16.90
2023-04-18T11:06:03.392Z,17.12
2023-04-18T11:07:07.899Z,17.08
2023-04-18T11:08:25.810Z,17.27
2023-04-18T11:09:28.556Z,17.44
2023-04-18T11:10:32.284Z,17.36
2023-04-18T11:11:35.208Z,17.50
2023-04-18T11:12:40.074Z,17.45
2023-04-18T11:14:04.020Z,17.39
2023-04-18T11:15:12.875Z,17.28
2023-04-18T11:16:29.085Z,17.19
2023-04-18T11:17:36.237Z,17.14
2023-04-18T11:18:42.749Z,16.88
2023-04-18T11:19:47.520Z,16.91
2023-04-18T11:20:53.931Z,16.92
2023-04-18T11:22:05.537Z,16.92
2023-04-18T11:23:18.465Z,16.89
2023-04-18T11:24:25.885Z,16.74
2023-04-18T11:25:32.238Z,16.76
2023-04-18T11:26:51.790Z,16.83
2023-04-18T11:27:56.924Z,16.89
2023-04-18T11:29:04.882Z,16.91
2023-04-18T11:30:15.333Z,16.92
2023-04-18T11:31:24.196Z,16.61
2023-04-18T11:32:27.217Z,16.84
2023-04-18T11:33:31.553Z,16.87
2023-04-18T11:34:34.507Z,16.92
2023-04-18T11:35:42.043Z,16.99
2023-04-18T11:36:48.784Z,16.98
2023-04-18T11:37:52.565Z,17.04
2023-04-18T11:38:57.801Z,17.14
2023-04-18T11:40:05.253Z,17.21
2023-04-18T11:41:14.113Z,17.25
2023-04-18T11:42:17.856Z,17.14
2023-04-18T11:43:23.600Z,17.17
2023-04-18T11:44:27.959Z,17.27
2023-04-18T11:45:31.961Z,17.16
2023-04-18T11:46:39.022Z,17.18
2023-04-18T11:47:44.322Z,17.17
2023-04-18T11:48:50.392Z,17.27
2023-04-18T11:50:01.133Z,17.22
2023-04-18T11:51:04.853Z,17.27
2023-04-18T11:52:13.024Z,17.27
2023-04-18T11:53:17.259Z,17.24
2023-04-18T11:54:41.424Z,17.37
2023-04-18T11:55:56.216Z,17.33
2023-04-18T11:57:03.519Z,17.41
2023-04-18T11:58:07.687Z,17.28
2023-04-18T11:59:10.766Z,17.42
2023-04-18T12:00:19.463Z,17.18
2023-04-18T12:01:24.021Z,17.31
2023-04-18T12:02:29.522Z,17.37
2023-04-18T12:03:34.718Z,17.38
2023-04-18T12:04:54.437Z,17.50
2023-04-18T12:06:02.792Z,17.38
2023-04-18T12:07:05.970Z,17.56
2023-04-18T12:08:11.631Z,17.46
2023-04-18T12:09:15.816Z,17.46
2023-04-18T12:10:31.180Z,17.48
2023-04-18T12:11:35.692Z,17.40
2023-04-18T12:12:39.561Z,17.30
2023-04-18T12:13:42.323Z,17.33
2023-04-18T12:14:47.805Z,17.47
2023-04-18T12:15:54.570Z,17.57
2023-04-18T12:16:57.553Z,17.54
2023-04-18T12:18:02.937Z,17.51
2023-04-18T12:19:06.799Z,17.34
2023-04-18T12:20:14.209Z,17.01
2023-04-18T12:21:18.984Z,17.05
2023-04-18T12:22:37.927Z,16.94
2023-04-18T12:23:43.088Z,16.81
2023-04-18T12:24:47.924Z,16.71
2023-04-18T12:26:00.777Z,16.63
2023-04-18T12:27:06.450Z,16.73
2023-04-18T12:28:17.145Z,16.78
2023-04-18T12:29:19.790Z,16.72
2023-04-18T12:30:27.554Z,16.68
2023-04-18T12:31:32.632Z,16.44
2023-04-18T12:32:36.684Z,16.50
2023-04-18T12:33:45.085Z,16.45
2023-04-18T12:34:49.014Z,16.50
2023-04-18T12:35:58.148Z,16.26
2023-04-18T12:37:01.197Z,16.37
2023-04-18T12:38:05.058Z,16.36
2023-04-18T12:39:08.302Z,16.34
2023-04-18T12:40:13.915Z,16.34
2023-04-18T12:41:17.769Z,16.11
2023-04-18T12:42:25.110Z,16.19
2023-04-18T12:43:32.146Z,16.05
2023-04-18T12:44:38.197Z,16.13
2023-04-18T12:45:49.399Z,16.16
2023-04-18T12:46:53.232Z,16.13
2023-04-18T12:47:57.214Z,16.18
2023-04-18T12:49:03.525Z,16.06
2023-04-18T12:50:10.719Z,16.31
2023-04-18T12:51:15.353Z,16.31
2023-04-18T12:52:17.901Z,16.31
2023-04-18T12:53:21.664Z,16.31
2023-04-18T12:54:26.184Z,16.25
2023-04-18T12:55:30.304Z,16.23
2023-04-18T12:56:34.158Z,16.26
2023-04-18T12:57:39.764Z,16.22
2023-04-18T12:58:43.512Z,16.21
2023-04-18T12:59:46.244Z,16.04
2023-04-18T13:00:50.056Z,15.96
2023-04-18T13:01:52.671Z,15.96
2023-04-18T13:02:56.609Z,15.97
2023-04-18T13:04:10.880Z,15.99
2023-04-18T13:05:18.415Z,15.91
2023-04-18T13:06:22.138Z,15.90
2023-04-18T13:07:25.072Z,15.89
2023-04-18T13:08:28.815Z,15.91
2023-04-18T13:09:31.742Z,15.93
2023-04-18T13:10:35.827Z,15.85
2023-04-18T13:11:38.458Z,15.77
2023-04-18T13:12:43.636Z,15.91
2023-04-18T13:13:46.937Z,15.88
2023-04-18T13:14:50.623Z,15.83
2023-04-18T13:15:53.473Z,15.85
2023-04-18T13:16:57.201Z,15.80
2023-04-18T13:18:05.141Z,15.80
2023-04-18T13:19:08.938Z,15.71
2023-04-18T13:20:13.161Z,15.73
2023-04-18T13:21:17.170Z,15.74
2023-04-18T13:22:21.009Z,15.65
2023-04-18T13:23:24.336Z,15.64
2023-04-18T13:24:27.025Z,15.66
2023-04-18T13:25:30.778Z,15.64
2023-04-18T13:26:36.681Z,15.56
2023-04-18T13:27:42.797Z,15.56
2023-04-18T13:28:45.357Z,15.59
2023-04-18T13:29:49.066Z,15.56
2023-04-18T13:30:52.323Z,15.56
2023-04-18T13:31:55.133Z,15.54
2023-04-18T13:32:59.024Z,15.52
2023-04-18T13:34:01.668Z,15.46
2023-04-18T13:35:07.867Z,15.40
2023-04-18T13:36:12.164Z,15.41
2023-04-18T13:37:17.064Z,15.37
2023-04-18T13:38:19.622Z,15.31
2023-04-18T13:39:24.649Z,15.36
2023-04-18T13:40:28.199Z,15.33
2023-04-18T13:41:31.032Z,15.33
2023-04-18T13:42:35.954Z,15.30
2023-04-18T13:43:40.189Z,15.25
2023-04-18T13:44:43.857Z,15.27
2023-04-18T13:45:46.705Z,15.29
2023-04-18T13:46:50.360Z,15.26
2023-04-18T13:47:54.474Z,15.28
2023-04-18T13:48:57.157Z,15.28
2023-04-18T13:50:00.912Z,15.29
2023-04-18T13:51:03.707Z,15.30
2023-04-18T13:52:07.501Z,15.34
2023-04-18T13:53:10.449Z,15.35
2023-04-18T13:54:16.626Z,15.21
2023-04-18T13:55:20.566Z,15.24
2023-04-18T13:56:23.476Z,15.19
2023-04-18T13:57:27.272Z,15.14
2023-04-18T13:58:31.101Z,15.16
2023-04-18T13:59:36.170Z,15.13
2023-04-18T14:00:40.296Z,15.12
2023-04-18T14:01:43.444Z,15.11
2023-04-18T14:02:47.472Z,15.11
2023-04-18T14:03:50.515Z,15.09
2023-04-18T14:04:55.132Z,15.10
2023-04-18T14:05:59.486Z,15.08